Time;durP1;ratioP1;P1;durP2;ratioP2;P2;SDS_P1;SDS_P2;PMS_P1;PMS_P2;Temp;Humidity;BMP_temperature;BMP_pressure;BME280_temperature;BME280_humidity;BME280_pressure;Samples;Min_cycle;Max_cycle;Signal;HPM_P1;HPM_P2
2021/07/22 00:01:34;;;;;;;16.30;4.57;;;;;6.70;101748.00;;;;5089304;28;20060;-73
2021/07/22 00:04:00;;;;;;;5.03;3.90;;;;;6.60;101738.00;;;;5088741;28;20040;-71
2021/07/22 00:06:27;;;;;;;3.80;3.13;;;;;6.60;101759.00;;;;5088584;28;20585;-71
2021/07/22 00:08:53;;;;;;;6.15;3.65;;;;;6.50;101738.00;;;;5088531;28;20024;-73
2021/07/22 00:11:20;;;;;;;6.40;3.75;;;;;6.50;101763.00;;;;5088800;28;20126;-72
2021/07/22 00:13:47;;;;;;;11.18;5.13;;;;;6.70;101743.00;;;;5088618;28;20047;-70
2021/07/22 00:16:17;;;;;;;5.63;3.30;;;;;6.80;101758.00;;;;5088267;28;20034;-70
2021/07/22 00:18:44;;;;;;;7.88;5.25;;;;;6.80;101755.00;;;;5088018;28;20540;-72
2021/07/22 00:21:10;;;;;;;15.65;4.65;;;;;6.70;101750.00;;;;5087923;28;20032;-72
2021/07/22 00:23:37;;;;;;;5.85;4.30;;;;;6.70;101739.00;;;;5087684;28;20118;-71
2021/07/22 00:26:05;;;;;;;8.50;4.30;;;;;6.70;101755.00;;;;5087580;28;20028;-74
2021/07/22 00:28:32;;;;;;;13.18;4.65;;;;;6.60;101767.00;;;;5087355;28;20020;-72
2021/07/22 00:30:59;;;;;;;16.42;5.22;;;;;6.50;101766.00;;;;5087845;28;20508;-72
2021/07/22 00:33:26;;;;;;;11.27;5.97;;;;;6.30;101771.00;;;;5087122;28;20105;-72
2021/07/22 00:35:53;;;;;;;11.95;6.57;;;;;6.30;101768.00;;;;5087301;28;20036;-72
2021/07/22 00:38:19;;;;;;;15.77;6.97;;;;;6.30;101763.00;;;;5087311;28;20024;-71
2021/07/22 00:40:47;;;;;;;16.85;9.23;;;;;6.40;101757.00;;;;5088227;28;20485;-71
2021/07/22 00:43:13;;;;;;;7.93;5.18;;;;;6.50;101763.00;;;;5088224;28;20138;-71
2021/07/22 00:45:40;;;;;;;12.82;4.78;;;;;6.50;101776.00;;;;5087874;28;20059;-70
2021/07/22 00:48:06;;;;;;;9.32;4.90;;;;;6.40;101771.00;;;;5087843;28;20043;-71
2021/07/22 00:50:33;;;;;;;6.45;4.00;;;;;6.30;101773.00;;;;5088213;28;20032;-70
2021/07/22 00:53:00;;;;;;;8.18;4.30;;;;;6.30;101782.00;;;;5088052;28;20065;-70
2021/07/22 00:55:30;;;;;;;8.13;4.32;;;;;6.40;101777.00;;;;5087479;28;20543;-71
2021/07/22 00:57:57;;;;;;;8.88;4.43;;;;;6.50;101763.00;;;;5087513;28;20028;-72
2021/07/22 01:00:24;;;;;;;8.00;4.57;;;;;6.40;101775.00;;;;5087244;28;20096;-71
2021/07/22 01:02:51;;;;;;;7.95;5.10;;;;;6.40;101790.00;;;;5086321;28;20043;-72
2021/07/22 01:05:18;;;;;;;11.77;5.97;;;;;6.30;101795.00;;;;5088670;28;20039;-70
2021/07/22 01:07:45;;;;;;;8.93;5.40;;;;;6.20;101786.00;;;;5087997;28;20064;-72
2021/07/22 01:10:11;;;;;;;11.65;6.80;;;;;6.20;101773.00;;;;5086821;28;20032;-72
2021/07/22 01:12:38;;;;;;;12.25;7.40;;;;;6.10;101769.00;;;;5088322;28;20024;-73
2021/07/22 01:15:05;;;;;;;9.18;5.65;;;;;6.10;101799.00;;;;5086643;28;20395;-71
2021/07/22 01:17:46;;;;;;;12.45;7.20;;;;;6.00;101788.00;;;;5087598;28;20040;-72
2021/07/22 01:20:17;;;;;;;7.23;4.17;;;;;6.00;101803.00;;;;5087862;28;20068;-70
2021/07/22 01:22:44;;;;;;;8.73;4.53;;;;;6.00;101787.00;;;;5087527;28;20044;-71
2021/07/22 01:25:12;;;;;;;7.13;3.92;;;;;5.80;101801.00;;;;5088265;28;20051;-73
2021/07/22 01:27:39;;;;;;;9.73;4.35;;;;;5.70;101795.00;;;;5088104;28;20035;-71
2021/07/22 01:30:07;;;;;;;11.00;7.97;;;;;5.70;101805.00;;;;5088055;28;20078;-72
2021/07/22 01:32:34;;;;;;;18.23;12.85;;;;;5.70;101809.00;;;;5087965;28;20099;-70
2021/07/22 01:35:01;;;;;;;15.82;12.30;;;;;5.70;101796.00;;;;5087673;28;20020;-71
2021/07/22 01:37:27;;;;;;;11.85;8.23;;;;;5.60;101803.00;;;;5088021;28;20036;-73
2021/07/22 01:39:54;;;;;;;10.18;6.32;;;;;5.60;101813.00;;;;5087441;28;20481;-72
2021/07/22 01:42:21;;;;;;;9.48;6.45;;;;;5.50;101831.00;;;;5086957;28;20056;-73
2021/07/22 01:44:47;;;;;;;7.95;5.35;;;;;5.40;101828.00;;;;5087296;28;20036;-73
2021/07/22 01:47:14;;;;;;;4.60;3.40;;;;;5.40;101823.00;;;;5088112;28;20063;-71
2021/07/22 01:49:41;;;;;;;9.50;3.13;;;;;5.30;101821.00;;;;5087910;28;20061;-71
2021/07/22 01:52:07;;;;;;;7.95;3.42;;;;;5.30;101814.00;;;;5087383;28;20043;-71
2021/07/22 01:54:34;;;;;;;7.88;4.00;;;;;5.30;101832.00;;;;5087386;28;20028;-72
2021/07/22 01:57:01;;;;;;;4.80;3.42;;;;;5.30;101821.00;;;;5087264;28;20551;-71
2021/07/22 01:59:40;;;;;;;6.38;3.40;;;;;5.20;101818.00;;;;5087441;28;20036;-71
2021/07/22 02:02:09;;;;;;;5.70;3.40;;;;;5.10;101817.00;;;;5087305;28;20622;-72
2021/07/22 02:04:38;;;;;;;6.45;3.30;;;;;5.00;101824.00;;;;5087162;28;20055;-72
2021/07/22 02:07:05;;;;;;;5.60;3.33;;;;;5.00;101794.00;;;;5086323;28;20028;-70
2021/07/22 02:09:32;;;;;;;8.10;3.20;;;;;5.10;101803.00;;;;5087199;28;20495;-72
2021/07/22 02:12:00;;;;;;;7.65;4.00;;;;;5.00;101800.00;;;;5087371;28;20032;-71
2021/07/22 02:14:27;;;;;;;7.95;4.35;;;;;4.90;101820.00;;;;5087843;28;20493;-70
2021/07/22 02:16:54;;;;;;;5.10;3.58;;;;;4.90;101787.00;;;;5087111;28;20502;-71
2021/07/22 02:19:20;;;;;;;8.80;5.47;;;;;4.80;101791.00;;;;5086941;28;20031;-71
2021/07/22 02:21:47;;;;;;;7.57;5.63;;;;;4.70;101770.00;;;;5086488;28;20059;-72
2021/07/22 02:24:14;;;;;;;11.93;6.47;;;;;4.60;101770.00;;;;5086911;28;20063;-71
2021/07/22 02:26:41;;;;;;;10.23;6.47;;;;;4.60;101764.00;;;;5087029;28;20478;-71
2021/07/22 02:29:09;;;;;;;8.73;5.10;;;;;4.60;101775.00;;;;5086655;28;20032;-71
2021/07/22 02:31:35;;;;;;;7.53;4.93;;;;;4.60;101769.00;;;;5087068;28;20032;-72
2021/07/22 02:34:03;;;;;;;9.02;5.18;;;;;4.60;101771.00;;;;5086715;28;20024;-73
2021/07/22 02:36:29;;;;;;;6.88;3.45;;;;;4.60;101757.00;;;;5087022;28;20044;-72
2021/07/22 02:38:56;;;;;;;5.80;3.42;;;;;4.60;101742.00;;;;5087065;28;20077;-71
2021/07/22 02:41:23;;;;;;;8.90;4.13;;;;;4.50;101737.00;;;;5086752;28;20107;-73
2021/07/22 02:43:49;;;;;;;5.22;3.65;;;;;4.50;101743.00;;;;5085967;28;20845;-73
2021/07/22 02:46:16;;;;;;;6.78;3.85;;;;;4.50;101736.00;;;;5086716;28;20028;-72
2021/07/22 02:48:42;;;;;;;7.47;4.10;;;;;4.50;101762.00;;;;5086347;28;20643;-72
2021/07/22 02:51:09;;;;;;;9.43;4.95;;;;;4.60;101755.00;;;;5086585;28;20036;-71
2021/07/22 02:53:36;;;;;;;21.25;10.93;;;;;4.70;101743.00;;;;5086224;28;20028;-70
2021/07/22 02:56:04;;;;;;;12.77;9.07;;;;;4.70;101752.00;;;;5086551;28;20036;-72
2021/07/22 02:58:31;;;;;;;10.45;7.45;;;;;4.70;101748.00;;;;5086870;28;20028;-72
2021/07/22 03:00:58;;;;;;;8.52;6.40;;;;;4.70;101739.00;;;;5086844;28;20033;-73
2021/07/22 03:03:24;;;;;;;8.02;3.97;;;;;4.70;101744.00;;;;5086211;28;20068;-71
2021/07/22 03:05:51;;;;;;;15.20;6.68;;;;;4.70;101762.00;;;;5090812;28;20040;-70
2021/07/22 03:08:18;;;;;;;12.15;7.63;;;;;4.80;101739.00;;;;5090395;28;20038;-70
2021/07/22 03:10:44;;;;;;;7.25;5.72;;;;;4.80;101737.00;;;;5090461;28;20579;-71
2021/07/22 03:13:11;;;;;;;10.82;6.00;;;;;4.80;101753.00;;;;5090375;28;20059;-70
2021/07/22 03:15:37;;;;;;;10.20;6.47;;;;;4.90;101756.00;;;;5090567;28;20390;-72
2021/07/22 03:18:04;;;;;;;10.98;5.47;;;;;4.80;101744.00;;;;5089854;28;20035;-72
2021/07/22 03:20:31;;;;;;;7.72;4.55;;;;;4.80;101752.00;;;;5090347;28;20020;-70
2021/07/22 03:23:02;;;;;;;6.40;4.05;;;;;4.80;101740.00;;;;5090710;28;20032;-71
2021/07/22 03:25:29;;;;;;;10.75;4.10;;;;;4.80;101756.00;;;;5090532;28;20024;-71
2021/07/22 03:27:59;;;;;;;5.78;3.80;;;;;4.80;101755.00;;;;5090022;28;20028;-71
2021/07/22 03:30:27;;;;;;;4.57;3.30;;;;;4.60;101773.00;;;;5089930;28;20434;-71
2021/07/22 03:32:54;;;;;;;5.40;3.55;;;;;4.60;101769.00;;;;5090380;28;20102;-72
2021/07/22 03:35:20;;;;;;;6.72;3.17;;;;;4.70;101753.00;;;;5090200;28;20059;-72
2021/07/22 03:37:47;;;;;;;4.60;3.38;;;;;4.60;101744.00;;;;5090196;28;20149;-70
2021/07/22 03:40:14;;;;;;;3.65;3.15;;;;;4.60;101773.00;;;;5089822;28;20085;-69
2021/07/22 03:42:40;;;;;;;5.50;3.30;;;;;4.60;101750.00;;;;5089869;28;20078;-71
2021/07/22 03:45:07;;;;;;;3.30;2.88;;;;;4.60;101733.00;;;;5089426;28;20032;-72
2021/07/22 03:47:34;;;;;;;4.82;2.40;;;;;4.60;101740.00;;;;5090359;28;20067;-70
2021/07/22 03:50:02;;;;;;;6.20;2.67;;;;;4.50;101758.00;;;;5090259;28;20070;-72
2021/07/22 03:52:29;;;;;;;3.65;2.75;;;;;4.40;101750.00;;;;5089778;28;20051;-72
2021/07/22 03:54:56;;;;;;;2.80;2.60;;;;;4.40;101755.00;;;;5089984;28;20092;-72
2021/07/22 03:57:23;;;;;;;4.60;2.60;;;;;4.40;101756.00;;;;5089403;28;20038;-71
2021/07/22 03:59:50;;;;;;;3.95;2.45;;;;;4.50;101758.00;;;;5088298;28;20036;-72
2021/07/22 04:02:16;;;;;;;6.25;3.42;;;;;4.40;101743.00;;;;5089118;28;20036;-72
2021/07/22 04:04:43;;;;;;;4.57;2.40;;;;;4.50;101735.00;;;;5089358;28;20111;-70
2021/07/22 04:07:10;;;;;;;3.80;2.75;;;;;4.50;101769.00;;;;5089367;28;20449;-73
2021/07/22 04:09:36;;;;;;;2.10;1.90;;;;;4.40;101741.00;;;;5089633;28;20111;-72
2021/07/22 04:12:03;;;;;;;2.95;1.98;;;;;4.40;101749.00;;;;5089933;28;20479;-73
2021/07/22 04:14:29;;;;;;;5.30;2.42;;;;;4.30;101767.00;;;;5089207;28;20036;-71
2021/07/22 04:16:56;;;;;;;3.63;2.10;;;;;4.20;101760.00;;;;5089713;28;20056;-73
2021/07/22 04:19:23;;;;;;;2.50;2.08;;;;;4.10;101744.00;;;;5089205;28;20058;-70
2021/07/22 04:21:49;;;;;;;5.35;2.58;;;;;4.20;101747.00;;;;5088934;28;20031;-71
2021/07/22 04:24:16;;;;;;;2.70;2.03;;;;;4.30;101743.00;;;;5089430;28;20024;-73
2021/07/22 04:26:42;;;;;;;6.00;2.58;;;;;4.20;101755.00;;;;5089183;28;20028;-71
2021/07/22 04:29:09;;;;;;;3.53;2.17;;;;;4.20;101763.00;;;;5088954;28;20028;-71
2021/07/22 04:31:36;;;;;;;3.17;2.25;;;;;4.10;101739.00;;;;5089221;28;20047;-71
2021/07/22 04:34:02;;;;;;;4.40;2.67;;;;;3.90;101763.00;;;;5089326;28;20495;-72
2021/07/22 04:36:31;;;;;;;4.72;2.80;;;;;3.70;101765.00;;;;5088932;28;20024;-71
2021/07/22 04:38:58;;;;;;;4.80;3.42;;;;;3.60;101753.00;;;;5088911;28;20115;-70
2021/07/22 04:41:24;;;;;;;5.00;3.28;;;;;3.70;101753.00;;;;5088541;28;20511;-71
2021/07/22 04:43:51;;;;;;;5.07;3.28;;;;;3.70;101768.00;;;;5088459;28;20484;-72
2021/07/22 04:46:17;;;;;;;6.13;3.42;;;;;3.70;101755.00;;;;5088695;28;20043;-71
2021/07/22 04:48:44;;;;;;;8.25;3.92;;;;;3.60;101771.00;;;;5088587;28;20040;-71
2021/07/22 04:51:11;;;;;;;7.40;3.50;;;;;3.60;101773.00;;;;5089186;28;20070;-72
2021/07/22 04:53:37;;;;;;;5.65;3.20;;;;;3.60;101753.00;;;;5088261;28;20044;-72
2021/07/22 04:56:04;;;;;;;4.30;3.25;;;;;3.60;101755.00;;;;5088414;28;20119;-70
2021/07/22 04:58:31;;;;;;;4.45;3.22;;;;;3.70;101730.00;;;;5088636;28;20501;-71
2021/07/22 05:00:57;;;;;;;3.05;2.33;;;;;3.70;101750.00;;;;5088245;28;20032;-72
2021/07/22 05:03:24;;;;;;;4.57;2.45;;;;;3.70;101755.00;;;;5088539;28;20032;-72
2021/07/22 05:05:50;;;;;;;6.13;2.53;;;;;3.70;101747.00;;;;5088515;28;20032;-72
2021/07/22 05:08:17;;;;;;;3.03;2.20;;;;;3.70;101754.00;;;;5087850;28;20040;-71
2021/07/22 05:10:43;;;;;;;2.70;2.08;;;;;3.80;101729.00;;;;5088050;28;20059;-72
2021/07/22 05:13:12;;;;;;;3.45;2.20;;;;;3.80;101722.00;;;;5088410;28;20059;-69
2021/07/22 05:15:38;;;;;;;3.53;2.08;;;;;3.80;101716.00;;;;5088267;28;20038;-70
2021/07/22 05:18:05;;;;;;;4.05;2.42;;;;;3.80;101739.00;;;;5088323;28;20055;-71
2021/07/22 05:20:31;;;;;;;10.93;2.88;;;;;3.70;101741.00;;;;5088259;28;20457;-72
2021/07/22 05:23:01;;;;;;;5.88;2.50;;;;;3.70;101725.00;;;;5087870;28;20082;-72
2021/07/22 05:25:28;;;;;;;3.95;3.00;;;;;3.70;101733.00;;;;5088096;28;20111;-73
2021/07/22 05:27:54;;;;;;;5.68;3.53;;;;;3.70;101744.00;;;;5087297;28;20031;-71
2021/07/22 05:30:21;;;;;;;5.47;3.30;;;;;3.70;101729.00;;;;5088409;28;20024;-72
2021/07/22 05:32:47;;;;;;;6.55;3.75;;;;;3.80;101731.00;;;;5087798;28;20115;-70
2021/07/22 05:35:14;;;;;;;4.60;3.60;;;;;3.70;101737.00;;;;5088119;28;20106;-72
2021/07/22 05:37:40;;;;;;;8.48;4.82;;;;;3.70;101728.00;;;;5088055;28;20089;-70
2021/07/22 05:40:08;;;;;;;8.07;3.65;;;;;3.50;101714.00;;;;5088192;28;20047;-70
2021/07/22 05:42:34;;;;;;;7.53;3.78;;;;;3.40;101713.00;;;;5087834;28;20047;-71
2021/07/22 05:45:01;;;;;;;7.53;5.53;;;;;3.40;101718.00;;;;5087755;28;20039;-70
2021/07/22 05:47:27;;;;;;;13.80;7.35;;;;;3.40;101715.00;;;;5087350;28;20502;-70
2021/07/22 05:49:54;;;;;;;11.45;7.45;;;;;3.50;101702.00;;;;5087513;28;20506;-70
2021/07/22 05:52:20;;;;;;;11.57;7.43;;;;;3.40;101688.00;;;;5087442;28;20571;-71
2021/07/22 05:54:47;;;;;;;8.65;5.88;;;;;3.40;101711.00;;;;5087449;28;20033;-70
2021/07/22 05:57:14;;;;;;;12.70;6.13;;;;;3.40;101696.00;;;;5086981;28;20123;-71
2021/07/22 05:59:40;;;;;;;12.80;7.10;;;;;3.50;101708.00;;;;5087588;28;20020;-70
2021/07/22 06:02:07;;;;;;;16.75;9.30;;;;;3.40;101712.00;;;;5087431;28;20040;-72
2021/07/22 06:04:35;;;;;;;15.77;7.93;;;;;3.50;101715.00;;;;5087340;28;20031;-72
2021/07/22 06:07:03;;;;;;;11.18;7.20;;;;;3.50;101728.00;;;;5087433;28;20042;-70
2021/07/22 06:09:30;;;;;;;10.68;5.78;;;;;3.60;101701.00;;;;5087785;28;20113;-71
2021/07/22 06:11:56;;;;;;;10.50;6.55;;;;;3.50;101699.00;;;;5086941;28;20398;-70
2021/07/22 06:14:23;;;;;;;13.30;7.20;;;;;3.40;101695.00;;;;5087043;28;20060;-72
2021/07/22 06:16:49;;;;;;;8.98;6.22;;;;;3.30;101695.00;;;;5087126;28;20123;-71
2021/07/22 06:19:16;;;;;;;11.05;8.35;;;;;3.20;101712.00;;;;5086750;28;20031;-71
2021/07/22 06:21:43;;;;;;;9.00;4.88;;;;;3.30;101697.00;;;;5086750;28;20437;-71
2021/07/22 06:24:09;;;;;;;10.98;7.00;;;;;3.30;101680.00;;;;5087125;28;20114;-71
2021/07/22 06:26:36;;;;;;;5.65;4.47;;;;;3.30;101684.00;;;;5087272;28;20020;-73
2021/07/22 06:29:03;;;;;;;7.20;5.00;;;;;3.30;101686.00;;;;5087968;28;20036;-72
2021/07/22 06:31:30;;;;;;;7.15;4.63;;;;;3.20;101679.00;;;;5086961;28;20032;-73
2021/07/22 06:33:57;;;;;;;11.50;4.93;;;;;3.20;101680.00;;;;5086326;28;20032;-71
2021/07/22 06:36:24;;;;;;;6.78;4.30;;;;;3.10;101682.00;;;;5087319;28;20031;-70
2021/07/22 06:38:51;;;;;;;5.82;4.05;;;;;3.10;101682.00;;;;5086479;28;20441;-72
2021/07/22 06:41:24;;;;;;;5.28;4.53;;;;;3.00;101656.00;;;;5086991;28;20032;-70
2021/07/22 06:43:51;;;;;;;8.77;5.30;;;;;3.00;101649.00;;;;5086562;28;20052;-70
2021/07/22 06:46:17;;;;;;;7.18;5.47;;;;;2.90;101654.00;;;;5086212;28;20048;-72
2021/07/22 06:48:44;;;;;;;9.77;5.63;;;;;2.80;101651.00;;;;5086834;28;20036;-70
2021/07/22 06:51:11;;;;;;;7.65;4.80;;;;;2.80;101665.00;;;;5087094;28;20117;-71
2021/07/22 06:53:38;;;;;;;9.95;4.70;;;;;2.90;101641.00;;;;5086262;28;20036;-71
2021/07/22 06:56:05;;;;;;;6.32;4.75;;;;;3.00;101664.00;;;;5086535;28;20028;-72
2021/07/22 06:58:32;;;;;;;7.30;5.13;;;;;3.00;101658.00;;;;5086684;28;20448;-71
2021/07/22 07:00:58;;;;;;;7.47;4.55;;;;;3.00;101666.00;;;;5086699;28;20035;-71
2021/07/22 07:03:25;;;;;;;8.10;4.57;;;;;3.00;101668.00;;;;5086361;28;20032;-72
2021/07/22 07:05:52;;;;;;;5.68;4.65;;;;;2.80;101660.00;;;;5086546;28;20028;-72
2021/07/22 07:08:19;;;;;;;5.60;4.75;;;;;2.70;101650.00;;;;5086448;28;20028;-72
2021/07/22 07:10:46;;;;;;;8.50;4.72;;;;;2.70;101638.00;;;;5087157;28;20143;-70
2021/07/22 07:13:13;;;;;;;7.10;4.50;;;;;2.70;101662.00;;;;5086571;28;20032;-72
2021/07/22 07:15:39;;;;;;;5.85;4.05;;;;;2.70;101657.00;;;;5086719;28;20562;-70
2021/07/22 07:18:06;;;;;;;9.82;4.60;;;;;2.60;101647.00;;;;5086618;28;20020;-70
2021/07/22 07:20:33;;;;;;;8.88;5.43;;;;;2.60;101613.00;;;;5086574;28;20482;-70
2021/07/22 07:22:59;;;;;;;6.32;5.22;;;;;2.50;101656.00;;;;5086407;28;20055;-72
2021/07/22 07:25:26;;;;;;;8.70;5.25;;;;;2.60;101653.00;;;;5086005;28;20104;-71
2021/07/22 07:27:52;;;;;;;6.13;4.53;;;;;2.70;101686.00;;;;5086611;28;20028;-70
2021/07/22 07:30:20;;;;;;;9.38;4.97;;;;;2.70;101669.00;;;;5086403;28;20024;-70
2021/07/22 07:32:53;;;;;;;5.28;4.60;;;;;2.80;101686.00;;;;5086085;28;20368;-70
2021/07/22 07:35:20;;;;;;;6.90;5.15;;;;;2.70;101670.00;;;;5085803;28;20036;-72
2021/07/22 07:37:46;;;;;;;6.88;5.32;;;;;2.60;101668.00;;;;5086792;28;20032;-70
2021/07/22 07:40:13;;;;;;;8.38;5.72;;;;;2.50;101667.00;;;;5084777;28;20412;-71
2021/07/22 07:42:40;;;;;;;7.90;5.10;;;;;2.50;101649.00;;;;5086057;28;20048;-71
2021/07/22 07:45:07;;;;;;;7.50;5.45;;;;;2.50;101653.00;;;;5085003;28;20036;-71
2021/07/22 07:47:34;;;;;;;7.90;5.78;;;;;2.60;101668.00;;;;5086467;28;20078;-71
2021/07/22 07:50:01;;;;;;;8.68;6.05;;;;;2.50;101670.00;;;;5087126;28;20028;-72
2021/07/22 07:52:28;;;;;;;8.38;5.68;;;;;2.50;101681.00;;;;5090003;28;20466;-70
2021/07/22 07:54:55;;;;;;;7.40;5.47;;;;;2.50;101668.00;;;;5089577;28;20023;-71
2021/07/22 07:57:22;;;;;;;16.77;6.40;;;;;2.50;101661.00;;;;5089977;28;20024;-71
2021/07/22 07:59:49;;;;;;;8.80;5.85;;;;;2.40;101655.00;;;;5089972;28;20031;-71
2021/07/22 08:02:16;;;;;;;10.05;5.78;;;;;2.40;101675.00;;;;5089373;28;20095;-71
2021/07/22 08:04:43;;;;;;;8.48;5.30;;;;;2.40;101681.00;;;;5089621;28;20028;-71
2021/07/22 08:07:09;;;;;;;8.65;5.45;;;;;2.60;101682.00;;;;5089104;28;20055;-69
2021/07/22 08:09:36;;;;;;;7.90;4.93;;;;;2.70;101682.00;;;;5089087;28;20024;-71
2021/07/22 08:12:03;;;;;;;7.60;6.35;;;;;2.70;101697.00;;;;5089085;28;20398;-69
2021/07/22 08:14:36;;;;;;;14.88;7.20;;;;;2.80;101697.00;;;;5089441;28;20039;-72
2021/07/22 08:17:04;;;;;;;10.30;5.65;;;;;2.70;101683.00;;;;5089417;28;20036;-71
2021/07/22 08:19:30;;;;;;;8.88;5.70;;;;;2.60;101695.00;;;;5089656;28;20101;-71
2021/07/22 08:21:57;;;;;;;18.48;12.35;;;;;2.40;101695.00;;;;5087303;28;20033;-70
2021/07/22 08:24:23;;;;;;;12.10;10.13;;;;;2.50;101688.00;;;;5087586;28;20462;-70
2021/07/22 08:26:50;;;;;;;13.15;11.20;;;;;2.40;101683.00;;;;5089179;28;20691;-70
2021/07/22 08:29:17;;;;;;;13.57;8.55;;;;;2.50;101706.00;;;;5089488;28;20020;-70
2021/07/22 08:31:43;;;;;;;11.68;9.15;;;;;2.40;101686.00;;;;5089227;28;20024;-71
2021/07/22 08:34:12;;;;;;;12.65;9.18;;;;;2.30;101699.00;;;;5088893;28;20016;-71
2021/07/22 08:36:38;;;;;;;11.57;8.05;;;;;2.20;101682.00;;;;5088973;28;20027;-69
2021/07/22 08:39:05;;;;;;;10.93;8.52;;;;;2.20;101688.00;;;;5089078;28;20032;-70
2021/07/22 08:41:31;;;;;;;9.85;8.23;;;;;2.30;101703.00;;;;5088391;28;20082;-70
2021/07/22 08:44:01;;;;;;;10.30;7.50;;;;;2.30;101711.00;;;;5089047;28;20054;-71
2021/07/22 08:46:27;;;;;;;7.82;6.40;;;;;2.30;101729.00;;;;5088553;28;20039;-70
2021/07/22 08:48:55;;;;;;;13.27;5.80;;;;;2.40;101700.00;;;;5088949;28;20095;-69
2021/07/22 08:51:25;;;;;;;9.10;6.88;;;;;2.40;101712.00;;;;5088639;28;20446;-70
2021/07/22 08:53:52;;;;;;;8.05;6.43;;;;;2.30;101707.00;;;;5088597;28;20042;-71
2021/07/22 08:56:24;;;;;;;11.95;6.28;;;;;2.40;101712.00;;;;5087262;28;20039;-71
2021/07/22 08:58:51;;;;;;;8.40;5.60;;;;;2.30;101713.00;;;;5088124;28;20071;-71
2021/07/22 09:01:21;;;;;;;6.80;5.28;;;;;2.30;101717.00;;;;5088324;28;20040;-70
2021/07/22 09:03:48;;;;;;;7.13;5.45;;;;;2.20;101720.00;;;;5088117;28;20644;-70
2021/07/22 09:06:15;;;;;;;11.98;4.93;;;;;2.30;101717.00;;;;5088415;28;20036;-71
2021/07/22 09:08:42;;;;;;;7.28;4.47;;;;;2.40;101737.00;;;;5087347;28;20703;-70
2021/07/22 09:11:11;;;;;;;8.40;4.80;;;;;2.40;101731.00;;;;5087162;28;20034;-71
2021/07/22 09:13:38;;;;;;;10.90;5.10;;;;;2.30;101729.00;;;;5087848;28;20115;-70
2021/07/22 09:16:05;;;;;;;7.38;5.03;;;;;2.40;101734.00;;;;5088494;28;20036;-70
2021/07/22 09:18:39;;;;;;;5.65;4.55;;;;;2.50;101747.00;;;;5087811;28;20040;-72
2021/07/22 09:21:23;;;;;;;6.13;4.70;;;;;2.50;101757.00;;;;5088126;28;20036;-71
2021/07/22 09:24:09;;;;;;;8.77;4.68;;;;;2.50;101741.00;;;;5087951;28;20035;-70
2021/07/22 09:26:38;;;;;;;6.30;4.60;;;;;2.30;101737.00;;;;5088447;28;20038;-70
2021/07/22 09:29:10;;;;;;;10.57;4.57;;;;;2.20;101744.00;;;;5088290;28;20031;-72
2021/07/22 09:31:36;;;;;;;;;;;;;2.20;101765.00;;;;5088899;28;20062;-71
2021/07/22 09:34:24;;;;;;;7.93;4.90;;;;;2.20;101762.00;;;;5087828;28;19912;-71
2021/07/22 09:36:51;;;;;;;8.68;4.30;;;;;2.20;101768.00;;;;5087396;28;20533;-70
2021/07/22 09:39:21;;;;;;;14.85;4.53;;;;;2.20;101767.00;;;;5087726;28;20066;-72
2021/07/22 09:42:05;;;;;;;7.45;4.63;;;;;2.20;101757.00;;;;5086665;28;20513;-70
2021/07/22 09:44:37;;;;;;;13.60;4.40;;;;;2.10;101765.00;;;;5086483;28;20082;-71
2021/07/22 09:47:13;;;;;;;8.55;4.38;;;;;2.10;101757.00;;;;5086373;28;20447;-72
2021/07/22 09:49:41;;;;;;;5.82;3.75;;;;;2.20;101769.00;;;;5086770;28;20028;-70
2021/07/22 09:52:17;;;;;;;6.15;4.22;;;;;2.20;101763.00;;;;5087556;28;20040;-70
2021/07/22 09:54:43;;;;;;;6.35;3.75;;;;;2.20;101759.00;;;;5087424;28;20491;-71
2021/07/22 09:57:30;;;;;;;6.32;4.20;;;;;2.10;101768.00;;;;5086893;28;20060;-71
2021/07/22 09:59:56;;;;;;;8.23;3.97;;;;;2.00;101771.00;;;;5086630;28;20032;-71
2021/07/22 10:02:25;;;;;;;12.82;4.30;;;;;1.90;101760.00;;;;5086970;28;20066;-70
2021/07/22 10:04:59;;;;;;;12.82;5.25;;;;;1.90;101771.00;;;;5085059;28;20032;-70
2021/07/22 10:07:27;;;;;;;10.45;5.53;;;;;1.80;101778.00;;;;5086749;28;20059;-70
2021/07/22 10:09:58;;;;;;;10.27;4.82;;;;;1.90;101786.00;;;;5086241;28;20107;-71
2021/07/22 10:12:25;;;;;;;7.82;4.75;;;;;1.90;101788.00;;;;5084967;28;20153;-70
2021/07/22 10:14:57;;;;;;;14.05;4.95;;;;;1.90;101787.00;;;;5087568;28;20035;-68
2021/07/22 10:17:33;;;;;;;6.07;4.60;;;;;2.00;101794.00;;;;5087211;28;20028;-69
2021/07/22 10:20:05;;;;;;;8.18;5.43;;;;;2.00;101780.00;;;;5087084;28;20047;-69
2021/07/22 10:22:32;;;;;;;8.02;4.80;;;;;2.00;101789.00;;;;5087156;28;20036;-70
2021/07/22 10:24:59;;;;;;;9.57;5.20;;;;;2.00;101766.00;;;;5087113;28;20032;-70
2021/07/22 10:27:26;;;;;;;8.18;4.95;;;;;2.10;101807.00;;;;5087069;28;20017;-69
2021/07/22 10:29:53;;;;;;;11.63;5.82;;;;;2.10;101795.00;;;;5087181;28;20491;-71
2021/07/22 10:32:23;;;;;;;9.02;5.60;;;;;2.10;101778.00;;;;5087402;28;20032;-71
2021/07/22 10:34:53;;;;;;;13.93;6.53;;;;;2.10;101788.00;;;;5086960;28;20032;-71
2021/07/22 10:37:21;;;;;;;19.48;6.32;;;;;2.20;101777.00;;;;5085941;28;20032;-73
2021/07/22 10:40:10;;;;;;;20.13;7.35;;;;;2.30;101788.00;;;;5084967;28;20028;-73
2021/07/22 10:42:51;;;;;;;11.73;7.35;;;;;2.40;101795.00;;;;5086527;28;20059;-71
2021/07/22 10:45:20;;;;;;;30.17;11.75;;;;;2.60;101777.00;;;;5086510;28;20495;-71
2021/07/22 10:48:06;;;;;;;25.63;17.55;;;;;3.80;101701.00;;;;5087271;28;20032;-70
2021/07/22 10:50:42;;;;;;;18.50;13.23;;;;;4.60;101660.00;;;;5086183;28;20085;-71
2021/07/22 10:53:10;;;;;;;23.08;9.75;;;;;6.70;101563.00;;;;5086837;28;20032;-72
2021/07/22 10:55:43;;;;;;;15.85;7.65;;;;;7.60;101621.00;;;;5086739;28;20277;-72
2021/07/22 10:58:25;;;;;;;20.95;6.70;;;;;8.30;101583.00;;;;5085664;28;20028;-71
2021/07/22 11:00:51;;;;;;;;;;;;;9.80;101628.00;;;;5087201;28;20313;-72
2021/07/22 11:03:36;;;;;;;9.35;4.82;;;;;8.80;101681.00;;;;5086494;28;19945;-73
2021/07/22 11:06:09;;;;;;;8.43;4.80;;;;;9.10;101643.00;;;;5086451;28;20454;-69
2021/07/22 11:08:44;;;;;;;9.10;4.95;;;;;8.70;101681.00;;;;5085521;28;20028;-72
2021/07/22 11:11:15;;;;;;;16.77;4.88;;;;;9.10;101601.00;;;;5086931;28;20457;-71
2021/07/22 11:13:50;;;;;;;16.20;4.50;;;;;8.60;101682.00;;;;5086737;28;20038;-73
2021/07/22 11:16:30;;;;;;;10.05;4.72;;;;;8.50;101639.00;;;;5086362;28;20127;-72
2021/07/22 11:18:58;;;;;;;6.55;3.83;;;;;8.90;101628.00;;;;5086267;28;20101;-72
2021/07/22 11:21:31;;;;;;;10.70;4.40;;;;;10.60;101593.00;;;;5085998;28;20115;-71
2021/07/22 11:24:01;;;;;;;9.68;3.97;;;;;12.30;101552.00;;;;5086173;28;20036;-72
2021/07/22 11:26:35;;;;;;;7.72;3.97;;;;;13.20;101565.00;;;;5089974;28;20386;-72
2021/07/22 11:29:04;;;;;;;9.07;3.50;;;;;12.30;101630.00;;;;5089929;28;20509;-73
2021/07/22 11:31:32;;;;;;;15.63;5.22;;;;;13.40;101573.00;;;;5090409;28;20028;-72
2021/07/22 11:34:03;;;;;;;11.20;6.28;;;;;14.00;101585.00;;;;5090301;28;20077;-73
2021/07/22 11:36:31;;;;;;;16.17;6.05;;;;;13.90;101578.00;;;;5090137;28;20059;-73
2021/07/22 11:39:00;;;;;;;14.70;6.22;;;;;13.90;101545.00;;;;5089990;28;20042;-72
2021/07/22 11:41:26;;;;;;;15.35;5.95;;;;;14.20;101541.00;;;;5089885;28;20043;-74
2021/07/22 11:44:01;;;;;;;12.68;5.10;;;;;14.90;101568.00;;;;5089228;28;20418;-72
2021/07/22 11:46:38;;;;;;;21.00;5.53;;;;;15.40;101552.00;;;;5089986;28;20027;-73
2021/07/22 11:49:10;;;;;;;8.40;4.80;;;;;14.90;101577.00;;;;5089841;28;20024;-74
2021/07/22 11:51:38;;;;;;;19.27;9.00;;;;;14.80;101532.00;;;;5090265;28;20036;-73
2021/07/22 11:54:06;;;;;;;9.35;4.60;;;;;14.90;101552.00;;;;5089799;28;20024;-71
2021/07/22 11:56:36;;;;;;;8.45;5.15;;;;;14.80;101541.00;;;;5089662;28;20032;-72
2021/07/22 11:59:07;;;;;;;8.80;5.35;;;;;15.40;101548.00;;;;5090382;28;20063;-72
2021/07/22 12:01:46;;;;;;;27.67;5.45;;;;;15.80;101539.00;;;;5089733;28;20024;-72
2021/07/22 12:04:14;;;;;;;12.65;5.63;;;;;15.70;101546.00;;;;5089711;28;20093;-73
2021/07/22 12:06:50;;;;;;;17.98;5.75;;;;;15.90;101575.00;;;;5089973;28;20487;-71
2021/07/22 12:09:17;;;;;;;14.38;5.72;;;;;16.20;101592.00;;;;5088916;28;20032;-71
2021/07/22 12:11:49;;;;;;;8.52;4.40;;;;;16.70;101604.00;;;;5089989;28;20043;-73
2021/07/22 12:14:28;;;;;;;15.23;5.45;;;;;17.40;101627.00;;;;5089541;28;20032;-74
2021/07/22 12:17:01;;;;;;;10.50;5.03;;;;;17.40;101655.00;;;;5088884;28;20039;-72
2021/07/22 12:19:31;;;;;;;9.90;5.35;;;;;17.40;101634.00;;;;5088145;28;20040;-72